Time;durP1;ratioP1;P1;durP2;ratioP2;P2;SDS_P1;SDS_P2;PMS_P1;PMS_P2;Temp;Humidity;BMP_temperature;BMP_pressure;BME280_temperature;BME280_humidity;BME280_pressure;Samples;Min_cycle;Max_cycle;Signal;HPM_P1;HPM_P2
2023/01/16 00:01:37;;;;;;;11.07;6.68;;;;;;;-144.87;100.00;61487.56;5007799;28;20034;-80
2023/01/16 00:04:04;;;;;;;9.38;6.20;;;;;;;-144.87;100.00;61487.56;5008302;28;20030;-79
2023/01/16 00:06:33;;;;;;;11.95;7.18;;;;;;;-144.87;100.00;61487.56;5008035;28;20057;-79
2023/01/16 00:09:02;;;;;;;17.95;7.78;;;;;;;-144.87;100.00;61487.56;5010562;28;20046;-80
2023/01/16 00:11:28;;;;;;;10.68;7.43;;;;;;;-144.87;100.00;61487.56;5008665;28;20033;-79
2023/01/16 00:13:55;;;;;;;10.35;7.97;;;;;;;-144.87;100.00;61487.56;5008158;28;20045;-79
2023/01/16 00:16:21;;;;;;;12.85;8.75;;;;;;;-144.87;100.00;61487.56;5007526;28;20049;-79
2023/01/16 00:18:48;;;;;;;12.25;8.27;;;;;;;-144.87;100.00;61487.56;5010538;28;20049;-79
2023/01/16 00:21:15;;;;;;;19.98;8.40;;;;;;;-144.87;100.00;61487.56;4989062;28;20046;-78
2023/01/16 00:23:41;;;;;;;16.02;9.00;;;;;;;-144.87;100.00;61487.56;5007278;28;20711;-79
2023/01/16 00:26:09;;;;;;;18.27;9.70;;;;;;;-144.87;100.00;61487.56;5016409;28;20038;-79
2023/01/16 00:28:39;;;;;;;19.27;11.70;;;;;;;-144.87;100.00;61487.56;5006380;28;20038;-78
2023/01/16 00:31:06;;;;;;;16.67;10.65;;;;;;;-144.87;100.00;61487.56;5007194;28;20048;-80
2023/01/16 00:33:33;;;;;;;17.55;11.48;;;;;;;-144.87;100.00;61487.56;5007371;28;20101;-80
2023/01/16 00:36:01;;;;;;;16.40;12.07;;;;;;;-144.87;100.00;61487.56;5007815;28;20046;-79
2023/01/16 00:38:27;;;;;;;18.20;11.50;;;;;;;-144.87;100.00;61487.56;5009196;28;20037;-79
2023/01/16 00:40:53;;;;;;;20.50;13.18;;;;;;;-144.87;100.00;61487.56;5010163;28;20038;-79
2023/01/16 00:43:19;;;;;;;25.02;13.52;;;;;;;-144.87;100.00;61487.56;4988679;28;20535;-79
2023/01/16 00:45:46;;;;;;;20.65;12.73;;;;;;;-144.87;100.00;61487.56;5008964;28;20076;-79
2023/01/16 00:48:13;;;;;;;24.88;13.20;;;;;;;-144.87;100.00;61487.56;5005479;28;20034;-83
2023/01/16 00:50:39;;;;;;;23.58;14.02;;;;;;;-144.87;100.00;61487.56;5004468;28;20046;-78
2023/01/16 00:53:06;;;;;;;22.77;13.55;;;;;;;-144.87;100.00;61487.56;5008021;28;20030;-79
2023/01/16 00:55:36;;;;;;;26.63;14.07;;;;;;;-144.87;100.00;61487.56;5004317;28;20455;-80
2023/01/16 00:58:03;;;;;;;22.38;14.43;;;;;;;-144.87;100.00;61487.56;4991685;28;20058;-78
2023/01/16 01:00:30;;;;;;;22.80;15.45;;;;;;;-144.87;100.00;61487.56;5008710;28;20045;-78
2023/01/16 01:02:56;;;;;;;26.63;17.58;;;;;;;-144.87;100.00;61487.56;5000964;28;20034;-79
2023/01/16 01:05:23;;;;;;;32.17;18.67;;;;;;;-144.87;100.00;61487.56;5009547;28;20069;-79
2023/01/16 01:07:51;;;;;;;38.05;19.23;;;;;;;-144.87;100.00;61487.56;5010310;28;21118;-79
2023/01/16 01:10:17;;;;;;;31.92;18.30;;;;;;;-144.87;100.00;61487.56;5013591;28;20068;-79
2023/01/16 01:12:44;;;;;;;33.08;19.02;;;;;;;-144.87;100.00;61487.56;5010941;28;20026;-79
2023/01/16 01:15:10;;;;;;;34.63;19.85;;;;;;;-144.87;100.00;61487.56;4992274;28;20042;-82
2023/01/16 01:17:36;;;;;;;31.10;17.90;;;;;;;-144.87;100.00;61487.56;5010297;28;20065;-79
2023/01/16 01:20:03;;;;;;;32.88;17.77;;;;;;;-144.87;100.00;61487.56;4992461;28;20480;-78
2023/01/16 01:22:29;;;;;;;31.73;16.35;;;;;;;-144.87;100.00;61487.56;5009130;28;20161;-79
2023/01/16 01:24:55;;;;;;;28.52;15.25;;;;;;;-144.87;100.00;61487.56;5012800;28;20457;-79
2023/01/16 01:27:22;;;;;;;26.98;15.50;;;;;;;-144.87;100.00;61487.56;5011614;28;20666;-79
2023/01/16 01:29:49;;;;;;;34.22;16.70;;;;;;;-144.87;100.00;61487.56;5012589;28;20120;-80
2023/01/16 01:32:15;;;;;;;28.33;14.77;;;;;;;-144.87;100.00;61487.56;5008504;28;20084;-79
2023/01/16 01:34:41;;;;;;;35.25;16.27;;;;;;;-144.87;100.00;61487.56;5013195;28;20038;-78
2023/01/16 01:37:08;;;;;;;30.05;17.17;;;;;;;-144.87;100.00;61487.56;5011453;28;20042;-79
2023/01/16 01:39:34;;;;;;;32.33;16.73;;;;;;;-144.87;100.00;61487.56;5017203;28;20031;-79
2023/01/16 01:44:51;;;;;;;30.30;15.85;;;;;;;-144.87;100.00;61487.56;5009662;28;20132;-79
2023/01/16 01:47:20;;;;;;;34.92;17.00;;;;;;;-144.87;100.00;61487.56;5010981;28;20037;-79
2023/01/16 01:49:47;;;;;;;31.40;17.02;;;;;;;-144.87;100.00;61487.56;5010764;28;20034;-78
2023/01/16 01:52:13;;;;;;;33.55;16.33;;;;;;;-144.87;100.00;61487.56;5012784;28;20042;-79
2023/01/16 01:54:44;;;;;;;42.13;18.40;;;;;;;-144.87;100.00;61487.56;5012960;28;20046;-79
2023/01/16 01:57:14;;;;;;;36.47;17.38;;;;;;;-144.87;100.00;61487.56;5015307;28;20404;-79
2023/01/16 01:59:44;;;;;;;29.65;16.15;;;;;;;-144.87;100.00;61487.56;5017134;28;20400;-79
2023/01/16 02:02:14;;;;;;;30.57;16.17;;;;;;;-144.87;100.00;61487.56;5030298;28;20038;-79
2023/01/16 02:04:42;;;;;;;30.47;16.53;;;;;;;-144.87;100.00;61487.56;5025919;28;20041;-79
2023/01/16 02:07:11;;;;;;;36.15;15.65;;;;;;;-144.87;100.00;61487.56;5017495;28;20426;-79
2023/01/16 02:09:37;;;;;;;37.22;17.13;;;;;;;-144.87;100.00;61487.56;5000061;28;20029;-79
2023/01/16 02:12:12;;;;;;;33.20;16.00;;;;;;;-144.87;100.00;61487.56;5009850;28;20096;-79
2023/01/16 02:14:41;;;;;;;31.92;16.85;;;;;;;-144.87;100.00;61487.56;5015977;28;20045;-80
2023/01/16 02:20:07;;;;;;;24.15;14.82;;;;;;;-144.87;100.00;61487.56;5021434;28;20404;-80
2023/01/16 02:23:17;;;;;;;34.00;14.88;;;;;;;-144.87;100.00;61487.56;5020926;28;20101;-78
2023/01/16 02:25:43;;;;;;;29.60;14.95;;;;;;;-144.87;100.00;61487.56;4995213;28;20125;-78
2023/01/16 02:28:31;;;;;;;27.83;14.82;;;;;;;-144.87;100.00;61487.56;4996153;28;20064;-79
2023/01/16 02:31:03;;;;;;;26.38;14.32;;;;;;;-144.87;100.00;61487.56;5018929;28;20026;-78
2023/01/16 02:33:59;;;;;;;26.75;14.07;;;;;;;-144.87;100.00;61487.56;5031027;28;20149;-79
2023/01/16 02:36:47;;;;;;;28.83;15.48;;;;;;;-144.87;100.00;61487.56;5029779;28;20128;-79
2023/01/16 02:39:36;;;;;;;33.40;14.82;;;;;;;-144.87;100.00;61487.56;5012302;28;20029;-81
2023/01/16 02:42:10;;;;;;;30.77;15.30;;;;;;;-144.87;100.00;61487.56;4993867;28;20465;-79
2023/01/16 02:44:55;;;;;;;35.38;15.85;;;;;;;-144.87;100.00;61487.56;5009169;28;20041;-79
2023/01/16 02:47:43;;;;;;;30.08;15.77;;;;;;;-144.87;100.00;61487.56;5036624;28;20052;-80
2023/01/16 02:50:34;;;;;;;31.48;14.40;;;;;;;-144.87;100.00;61487.56;5020325;28;20033;-78
2023/01/16 02:53:28;;;;;;;30.27;14.25;;;;;;;-144.87;100.00;61487.56;5000214;28;20038;-79
2023/01/16 02:55:57;;;;;;;27.83;13.10;;;;;;;-144.87;100.00;61487.56;5004050;28;20096;-79
2023/01/16 02:58:24;;;;;;;29.88;13.30;;;;;;;-144.87;100.00;61487.56;5012484;28;20076;-79
2023/01/16 03:00:53;;;;;;;33.70;13.63;;;;;;;-144.87;100.00;61487.56;4993367;28;20042;-79
2023/01/16 03:03:42;;;;;;;23.13;12.00;;;;;;;-144.87;100.00;61487.56;5012039;28;20099;-80
2023/01/16 03:06:42;;;;;;;33.25;12.95;;;;;;;-144.87;100.00;61487.56;5031231;28;20091;-80
2023/01/16 03:09:15;;;;;;;25.95;12.50;;;;;;;-144.87;100.00;61487.56;4970689;28;21198;-78
2023/01/16 03:12:19;;;;;;;26.38;10.82;;;;;;;-144.87;100.00;61487.56;5027709;28;20108;-80
2023/01/16 03:15:16;;;;;;;24.58;9.93;;;;;;;-144.87;100.00;61487.56;5030369;28;20084;-79
2023/01/16 03:18:10;;;;;;;20.85;9.25;;;;;;;-144.87;100.00;61487.56;5012510;28;20481;-78
2023/01/16 03:21:12;;;;;;;23.85;9.82;;;;;;;-144.87;100.00;61487.56;5012282;28;20064;-79
2023/01/16 03:23:53;;;;;;;17.73;8.45;;;;;;;-144.87;100.00;61487.56;5000180;28;20502;-79
2023/01/16 03:26:37;;;;;;;20.77;8.67;;;;;;;-144.87;100.00;61487.56;4994470;28;20496;-79
2023/01/16 03:29:09;;;;;;;17.40;8.05;;;;;;;-144.87;100.00;61487.56;5011845;28;20172;-79
2023/01/16 03:32:00;;;;;;;19.33;6.95;;;;;;;-144.87;100.00;61487.56;5022235;28;20381;-79
2023/01/16 03:34:48;;;;;;;22.08;7.25;;;;;;;-144.87;100.00;61487.56;5012015;28;20040;-79
2023/01/16 03:37:24;;;;;;;16.13;6.43;;;;;;;-144.87;100.00;61487.56;5011574;28;20058;-80
2023/01/16 03:39:55;;;;;;;19.17;6.32;;;;;;;-144.87;100.00;61487.56;4994921;28;20029;-79
2023/01/16 03:42:37;;;;;;;17.90;6.05;;;;;;;-144.87;100.00;61487.56;4992571;28;20034;-79
2023/01/16 03:45:19;;;;;;;17.00;6.13;;;;;;;-144.87;100.00;61487.56;5019664;28;20364;-79
2023/01/16 03:48:11;;;;;;;16.30;5.28;;;;;;;-144.87;100.00;61487.56;5002712;28;20071;-79
2023/01/16 03:50:38;;;;;;;17.45;5.63;;;;;;;-144.87;100.00;61487.56;5019508;28;20408;-79
2023/01/16 03:53:08;;;;;;;14.10;5.05;;;;;;;-144.87;100.00;61487.56;4995505;28;20535;-79
2023/01/16 03:55:59;;;;;;;18.20;4.55;;;;;;;-144.87;100.00;61487.56;5011237;28;20446;-79
2023/01/16 03:58:31;;;;;;;16.02;4.57;;;;;;;-144.87;100.00;61487.56;5029666;28;20806;-79
2023/01/16 04:01:17;;;;;;;14.88;4.28;;;;;;;-144.87;100.00;61487.56;5008932;28;20052;-79
2023/01/16 04:04:08;;;;;;;8.88;4.68;;;;;;;-144.87;100.00;61487.56;5023622;28;20415;-80
2023/01/16 04:06:51;;;;;;;17.02;6.07;;;;;;;-144.87;100.00;61487.56;5011013;28;20063;-79
2023/01/16 04:09:36;;;;;;;12.73;5.07;;;;;;;-144.87;100.00;61487.56;4998656;28;20415;-79
2023/01/16 04:12:07;;;;;;;16.52;4.78;;;;;;;-144.87;100.00;61487.56;5008745;28;20423;-79
2023/01/16 04:14:34;;;;;;;16.75;5.15;;;;;;;-144.87;100.00;61487.56;5029733;28;20349;-79
2023/01/16 04:17:01;;;;;;;13.82;4.55;;;;;;;-144.87;100.00;61487.56;4995742;28;20096;-80
2023/01/16 04:19:28;;;;;;;17.30;4.97;;;;;;;-144.87;100.00;61487.56;5008341;28;20037;-79
2023/01/16 04:21:55;;;;;;;18.95;4.38;;;;;;;-144.87;100.00;61487.56;5011883;28;20041;-78
2023/01/16 04:24:21;;;;;;;16.10;4.53;;;;;;;-144.87;100.00;61487.56;5010668;28;20042;-78
2023/01/16 04:26:47;;;;;;;16.20;4.50;;;;;;;-144.87;100.00;61487.56;4993723;28;20041;-78
2023/01/16 04:29:14;;;;;;;13.38;4.43;;;;;;;-144.87;100.00;61487.56;5027262;28;20030;-81
2023/01/16 04:31:40;;;;;;;9.60;4.50;;;;;;;-144.87;100.00;61487.56;5028935;28;20045;-79
2023/01/16 04:34:06;;;;;;;18.52;5.10;;;;;;;-144.87;100.00;61487.56;4977334;28;20034;-79
2023/01/16 04:36:32;;;;;;;15.48;6.10;;;;;;;-144.87;100.00;61487.56;4998144;28;20045;-80
2023/01/16 04:38:58;;;;;;;13.38;4.65;;;;;;;-144.87;100.00;61487.56;5009907;28;20037;-80
2023/01/16 04:41:37;;;;;;;13.73;5.50;;;;;;;-144.87;100.00;61487.56;5010734;28;20144;-79
2023/01/16 04:44:05;;;;;;;14.18;4.60;;;;;;;-144.87;100.00;61487.56;5028645;28;20038;-81
2023/01/16 04:46:32;;;;;;;11.93;4.70;;;;;;;-144.87;100.00;61487.56;5010463;28;20375;-80
2023/01/16 04:48:58;;;;;;;17.00;5.88;;;;;;;-144.87;100.00;61487.56;5007078;28;20500;-80
2023/01/16 04:51:25;;;;;;;10.27;4.05;;;;;;;-144.87;100.00;61487.56;4986470;28;20041;-80
2023/01/16 04:53:52;;;;;;;16.77;4.15;;;;;;;-144.87;100.00;61487.56;4994722;28;20118;-80
2023/01/16 04:56:18;;;;;;;19.42;3.80;;;;;;;-144.87;100.00;61487.56;4990811;28;20045;-79
2023/01/16 04:58:44;;;;;;;16.70;4.07;;;;;;;-144.87;100.00;61487.56;5022623;28;20470;-78
2023/01/16 05:01:11;;;;;;;15.48;5.05;;;;;;;-144.87;100.00;61487.56;5004423;28;20409;-78
2023/01/16 05:03:37;;;;;;;12.82;3.90;;;;;;;-144.87;100.00;61487.56;5026154;28;20116;-80
2023/01/16 05:06:04;;;;;;;11.60;3.35;;;;;;;-144.87;100.00;61487.56;5010740;28;20060;-80
2023/01/16 05:08:30;;;;;;;11.02;3.78;;;;;;;-144.87;100.00;61487.56;5018686;28;20064;-81
2023/01/16 05:11:00;;;;;;;11.32;3.92;;;;;;;-144.87;100.00;61487.56;5017572;28;20095;-79
2023/01/16 05:13:27;;;;;;;10.52;3.70;;;;;;;-144.87;100.00;61487.56;5016888;28;20061;-80
2023/01/16 05:15:53;;;;;;;13.00;3.97;;;;;;;-144.87;100.00;61487.56;5028263;28;20104;-80
2023/01/16 05:18:20;;;;;;;17.85;3.72;;;;;;;-144.87;100.00;61487.56;5013614;28;20124;-80
2023/01/16 05:20:46;;;;;;;11.00;4.00;;;;;;;-144.87;100.00;61487.56;5011143;28;20048;-81
2023/01/16 05:23:12;;;;;;;18.20;4.35;;;;;;;-144.87;100.00;61487.56;5014477;28;20026;-79
2023/01/16 05:25:39;;;;;;;11.52;3.83;;;;;;;-144.87;100.00;61487.56;5014796;28;20038;-81
2023/01/16 05:28:06;;;;;;;10.88;3.60;;;;;;;-144.87;100.00;61487.56;5011418;28;20507;-79
2023/01/16 05:30:32;;;;;;;16.48;4.45;;;;;;;-144.87;100.00;61487.56;5009050;28;20029;-80
2023/01/16 05:32:59;;;;;;;18.48;4.70;;;;;;;-144.87;100.00;61487.56;5010528;28;20101;-79
2023/01/16 05:35:25;;;;;;;13.27;4.07;;;;;;;-144.87;100.00;61487.56;5010867;28;20042;-79
2023/01/16 05:37:51;;;;;;;13.10;3.60;;;;;;;-144.87;100.00;61487.56;5029080;28;20400;-79
2023/01/16 05:40:18;;;;;;;11.27;3.65;;;;;;;-144.87;100.00;61487.56;5029068;28;20065;-79
2023/01/16 05:42:44;;;;;;;12.63;4.05;;;;;;;-144.87;100.00;61487.56;5000358;28;20026;-79
2023/01/16 05:45:11;;;;;;;22.08;5.00;;;;;;;-144.87;100.00;61487.56;5019443;28;20072;-86
2023/01/16 05:47:37;;;;;;;14.98;5.38;;;;;;;-144.87;100.00;61487.56;5027452;28;20103;-79
2023/01/16 05:50:04;;;;;;;11.13;3.70;;;;;;;-144.87;100.00;61487.56;5024959;28;20068;-79
2023/01/16 05:52:31;;;;;;;10.93;4.28;;;;;;;-144.87;100.00;61487.56;5030769;28;20033;-81
2023/01/16 05:54:57;;;;;;;14.80;4.00;;;;;;;-144.87;100.00;61487.56;5014206;28;20419;-80
2023/01/16 05:57:23;;;;;;;17.33;4.47;;;;;;;-144.87;100.00;61487.56;5016859;28;20045;-80
2023/01/16 05:59:51;;;;;;;9.93;3.55;;;;;;;-144.87;100.00;61487.56;5015030;28;20053;-79
2023/01/16 06:02:18;;;;;;;12.65;4.07;;;;;;;-144.87;100.00;61487.56;5003819;28;20435;-79
2023/01/16 06:04:44;;;;;;;13.95;4.18;;;;;;;-144.87;100.00;61487.56;4988647;28;20048;-78
2023/01/16 06:07:12;;;;;;;15.80;3.88;;;;;;;-144.87;100.00;61487.56;5020247;28;20037;-78
2023/01/16 06:09:39;;;;;;;14.45;3.63;;;;;;;-144.87;100.00;61487.56;5029643;28;20041;-79
2023/01/16 06:12:07;;;;;;;17.05;4.03;;;;;;;-144.87;100.00;61487.56;5013583;28;20508;-79
2023/01/16 06:14:34;;;;;;;11.07;3.50;;;;;;;-144.87;100.00;61487.56;5010907;28;20072;-79
2023/01/16 06:17:00;;;;;;;14.00;3.72;;;;;;;-144.87;100.00;61487.56;4995992;28;20038;-81
2023/01/16 06:19:26;;;;;;;11.38;3.80;;;;;;;-144.87;100.00;61487.56;5005570;28;20399;-79
2023/01/16 06:21:53;;;;;;;22.92;4.90;;;;;;;-144.87;100.00;61487.56;5030483;28;20423;-78
2023/01/16 06:24:19;;;;;;;10.20;3.13;;;;;;;-144.87;100.00;61487.56;5009598;28;20025;-79
2023/01/16 06:26:45;;;;;;;11.52;2.83;;;;;;;-144.87;100.00;61487.56;5012715;28;20060;-80
2023/01/16 06:29:12;;;;;;;11.00;3.75;;;;;;;-144.87;100.00;61487.56;5006751;28;20060;-80
2023/01/16 06:31:38;;;;;;;15.02;3.03;;;;;;;-144.87;100.00;61487.56;4995791;28;20038;-79
2023/01/16 06:34:04;;;;;;;15.05;3.80;;;;;;;-144.87;100.00;61487.56;5011339;28;20029;-79
2023/01/16 06:36:31;;;;;;;12.05;3.50;;;;;;;-144.87;100.00;61487.56;5009102;28;20056;-80
2023/01/16 06:38:57;;;;;;;17.70;4.70;;;;;;;-144.87;100.00;61487.56;5021216;28;20530;-79
2023/01/16 06:41:23;;;;;;;20.15;4.68;;;;;;;-144.87;100.00;61487.56;5020789;28;20029;-78
2023/01/16 06:43:49;;;;;;;14.05;4.45;;;;;;;-144.87;100.00;61487.56;5013857;28;20052;-79
2023/01/16 06:46:16;;;;;;;10.85;3.45;;;;;;;-144.87;100.00;61487.56;5025950;28;20048;-79
2023/01/16 06:48:42;;;;;;;11.48;3.20;;;;;;;-144.87;100.00;61487.56;5031154;28;20163;-79
2023/01/16 06:51:09;;;;;;;17.17;4.55;;;;;;;-144.87;100.00;61487.56;4997572;28;20038;-79
2023/01/16 06:53:36;;;;;;;11.07;3.50;;;;;;;-144.87;100.00;61487.56;5013514;28;20112;-80
2023/01/16 06:56:03;;;;;;;10.65;4.18;;;;;;;-144.87;100.00;61487.56;5031365;28;20053;-79
2023/01/16 06:58:29;;;;;;;20.80;5.38;;;;;;;-144.87;100.00;61487.56;4992757;28;20046;-79
2023/01/16 07:00:55;;;;;;;21.00;6.05;;;;;;;-144.87;100.00;61487.56;5012309;28;20067;-80
2023/01/16 07:03:22;;;;;;;12.95;4.32;;;;;;;-144.87;100.00;61487.56;5012862;28;20061;-80
2023/01/16 07:05:48;;;;;;;19.25;4.60;;;;;;;-144.87;100.00;61487.56;4997567;28;20084;-79
2023/01/16 07:08:15;;;;;;;17.88;4.93;;;;;;;-144.87;100.00;61487.56;5011142;28;20086;-79
2023/01/16 07:10:41;;;;;;;15.05;3.50;;;;;;;-144.87;100.00;61487.56;4992694;28;20400;-79
2023/01/16 07:13:09;;;;;;;16.05;4.50;;;;;;;-144.87;100.00;61487.56;5013260;28;20033;-78
2023/01/16 07:23:58;;;;;;;16.73;6.47;;;;;;;-144.87;100.00;61487.56;5027492;28;20033;-80
2023/01/16 07:26:25;;;;;;;14.00;4.87;;;;;;;-144.87;100.00;61487.56;5012115;28;20041;-79
2023/01/16 07:28:51;;;;;;;12.88;4.10;;;;;;;-144.87;100.00;61487.56;4994592;28;20362;-80
2023/01/16 07:31:18;;;;;;;7.97;3.25;;;;;;;-144.87;100.00;61487.56;5030160;28;20838;-80
2023/01/16 07:33:44;;;;;;;19.73;9.88;;;;;;;-144.87;100.00;61487.56;5030828;28;20037;-79
2023/01/16 07:36:10;;;;;;;12.93;5.35;;;;;;;-144.87;100.00;61487.56;5029821;28;20050;-78
2023/01/16 07:38:36;;;;;;;14.93;7.60;;;;;;;-144.87;100.00;61487.56;5030069;28;20128;-80
2023/01/16 07:41:03;;;;;;;11.27;6.07;;;;;;;-144.87;100.00;61487.56;5031114;28;20041;-79
2023/01/16 07:43:29;;;;;;;13.98;7.43;;;;;;;-144.87;100.00;61487.56;5013155;28;20037;-79
2023/01/16 07:45:55;;;;;;;10.80;5.18;;;;;;;-144.87;100.00;61487.56;5027506;28;20443;-78
2023/01/16 07:48:23;;;;;;;13.95;6.20;;;;;;;-144.87;100.00;61487.56;5013664;28;20416;-81
2023/01/16 07:50:54;;;;;;;8.60;2.90;;;;;;;-144.87;100.00;61487.56;5028817;28;20663;-79
2023/01/16 07:53:22;;;;;;;10.30;3.40;;;;;;;-144.87;100.00;61487.56;5022542;28;20052;-81
2023/01/16 07:55:53;;;;;;;8.93;3.08;;;;;;;-144.87;100.00;61487.56;5026938;28;20060;-80
2023/01/16 07:58:23;;;;;;;7.78;3.17;;;;;;;-144.87;100.00;61487.56;5001690;28;20045;-80
2023/01/16 08:00:52;;;;;;;8.80;3.15;;;;;;;-144.87;100.00;61487.56;5035049;28;20436;-79
2023/01/16 08:03:19;;;;;;;7.00;2.80;;;;;;;-144.87;100.00;61487.56;4994976;28;20017;-79
2023/01/16 08:05:47;;;;;;;6.97;3.08;;;;;;;-144.87;100.00;61487.56;5009349;28;20568;-78
2023/01/16 08:08:14;;;;;;;6.25;2.85;;;;;;;-144.87;100.00;61487.56;5010741;28;20067;-80
2023/01/16 08:10:40;;;;;;;11.60;3.22;;;;;;;-144.87;100.00;61487.56;5028770;28;20029;-78
2023/01/16 08:13:06;;;;;;;5.70;2.50;;;;;;;-144.87;100.00;61487.56;5012334;28;20059;-79
2023/01/16 08:15:33;;;;;;;7.30;3.30;;;;;;;-144.87;100.00;61487.56;5008790;28;20049;-79
2023/01/16 08:17:59;;;;;;;11.25;3.10;;;;;;;-144.87;100.00;61487.56;5026810;28;20043;-80
2023/01/16 08:20:25;;;;;;;9.80;3.65;;;;;;;-144.87;100.00;61487.56;5005734;28;20659;-80
2023/01/16 08:22:52;;;;;;;7.93;3.85;;;;;;;-144.87;100.00;61487.56;4997385;28;20494;-79
2023/01/16 08:25:20;;;;;;;7.68;3.50;;;;;;;-144.87;100.00;61487.56;4992287;28;20037;-79
2023/01/16 08:27:47;;;;;;;6.85;3.42;;;;;;;-144.87;100.00;61487.56;4998340;28;20042;-78
2023/01/16 08:30:14;;;;;;;8.48;4.03;;;;;;;-144.87;100.00;61487.56;5009739;28;20037;-80
2023/01/16 08:32:41;;;;;;;10.13;3.58;;;;;;;-144.87;100.00;61487.56;5015153;28;20070;-78
2023/01/16 08:35:09;;;;;;;23.75;14.15;;;;;;;-144.87;100.00;61487.56;4993225;28;20080;-78
2023/01/16 08:37:35;;;;;;;10.52;7.07;;;;;;;-144.87;100.00;61487.56;4992618;28;20128;-79
2023/01/16 08:40:03;;;;;;;9.32;5.05;;;;;;;-144.87;100.00;61487.56;5009756;28;20045;-78
2023/01/16 08:53:32;;;;;;;14.02;7.47;;;;;;;-144.87;100.00;61487.56;4994463;28;20042;-79
2023/01/16 08:55:58;;;;;;;11.10;5.13;;;;;;;-144.87;100.00;61487.56;5008117;28;20633;-78
2023/01/16 08:58:24;;;;;;;10.65;5.03;;;;;;;-144.87;100.00;61487.56;5001354;28;20388;-79
2023/01/16 09:00:50;;;;;;;12.25;5.18;;;;;;;-144.87;100.00;61487.56;4994065;28;20529;-79
2023/01/16 09:03:17;;;;;;;11.32;5.40;;;;;;;-144.87;100.00;61487.56;5011572;28;20029;-79
2023/01/16 09:05:43;;;;;;;8.73;5.35;;;;;;;-144.87;100.00;61487.56;5020053;28;20085;-78
2023/01/16 09:08:10;;;;;;;12.40;5.18;;;;;;;-144.87;100.00;61487.56;4991362;28;20065;-79
2023/01/16 09:10:36;;;;;;;12.50;5.20;;;;;;;-144.87;100.00;61487.56;5008561;28;20421;-78
2023/01/16 09:15:48;;;;;;;12.73;5.90;;;;;;;-144.87;100.00;61487.56;5010896;28;20072;-78
2023/01/16 09:18:14;;;;;;;9.43;6.15;;;;;;;-144.87;100.00;61487.56;4994513;28;20048;-80
2023/01/16 09:20:40;;;;;;;12.93;6.60;;;;;;;-144.87;100.00;61487.56;5027893;28;20127;-79
2023/01/16 09:23:06;;;;;;;13.20;5.25;;;;;;;-144.87;100.00;61487.56;5029056;28;20083;-81
2023/01/16 09:25:33;;;;;;;11.98;6.30;;;;;;;-144.87;100.00;61487.56;4976660;28;20696;-78
2023/01/16 09:28:00;;;;;;;8.27;5.43;;;;;;;-144.87;100.00;61487.56;5001595;28;20107;-78
2023/01/16 09:30:27;;;;;;;11.13;5.72;;;;;;;-144.87;100.00;61487.56;5014167;28;20395;-80
2023/01/16 09:32:54;;;;;;;8.98;5.35;;;;;;;-144.87;100.00;61487.56;5009987;28;20455;-80
2023/01/16 09:35:20;;;;;;;12.15;7.18;;;;;;;-144.87;100.00;61487.56;4998430;28;20034;-79
2023/01/16 09:37:46;;;;;;;13.98;6.75;;;;;;;-144.87;100.00;61487.56;5014722;28;20482;-80
2023/01/16 09:40:18;;;;;;;14.13;7.68;;;;;;;-144.87;100.00;61487.56;5014860;28;20087;-86
2023/01/16 09:45:36;;;;;;;12.30;6.15;;;;;;;-144.87;100.00;61487.56;5020113;28;20057;-79
2023/01/16 09:48:07;;;;;;;11.90;6.50;;;;;;;-144.87;100.00;61487.56;4998620;28;20048;-79
2023/01/16 09:50:43;;;;;;;8.48;6.88;;;;;;;-144.87;100.00;61487.56;5008134;28;20060;-80
2023/01/16 09:59:41;;;;;;;11.80;7.00;;;;;;;-144.87;100.00;61487.56;5017190;28;20582;-79
2023/01/16 10:02:27;;;;;;;11.45;6.60;;;;;;;-144.87;100.00;61487.56;5013823;28;20045;-81
2023/01/16 10:04:55;;;;;;;12.73;6.65;;;;;;;-144.87;100.00;61487.56;4996077;28;20038;-78
2023/01/16 10:07:50;;;;;;;9.52;5.82;;;;;;;-144.87;100.00;61487.56;5015643;28;20117;-79
2023/01/16 10:10:33;;;;;;;10.43;5.22;;;;;;;-144.87;100.00;61487.56;4994602;28;20033;-81
2023/01/16 10:13:11;;;;;;;10.90;5.00;;;;;;;-144.87;100.00;61487.56;4978493;28;20079;-79
2023/01/16 10:15:54;;;;;;;8.27;4.95;;;;;;;-144.87;100.00;61487.56;5015057;28;20030;-80
2023/01/16 10:18:36;;;;;;;11.27;4.43;;;;;;;-144.87;100.00;61487.56;5011818;28;20041;-78
2023/01/16 10:21:24;;;;;;;12.65;4.40;;;;;;;-144.87;100.00;61487.56;5005571;28;20044;-78
2023/01/16 10:24:09;;;;;;;5.45;3.67;;;;;;;-144.87;100.00;61487.56;5032760;28;20426;-79
2023/01/16 10:26:58;;;;;;;8.38;4.03;;;;;;;-144.87;100.00;61487.56;5027248;28;20029;-79
2023/01/16 10:29:30;;;;;;;7.93;4.10;;;;;;;-144.87;100.00;61487.56;5015900;28;20435;-79
2023/01/16 10:32:32;;;;;;;6.43;3.55;;;;;;;-144.87;100.00;61487.56;5007088;28;20029;-80
2023/01/16 10:35:05;;;;;;;7.63;3.58;;;;;;;-144.87;100.00;61487.56;4982840;28;20065;-79
2023/01/16 10:37:34;;;;;;;5.70;2.92;;;;;;;-144.87;100.00;61487.56;5018227;28;20408;-78
2023/01/16 10:40:11;;;;;;;5.35;3.20;;;;;;;-144.87;100.00;61487.56;4996917;28;20536;-81
2023/01/16 10:51:00;;;;;;;7.20;2.60;;;;;;;-144.87;100.00;61487.56;4999050;28;20041;-80
2023/01/16 10:53:27;;;;;;;4.38;2.65;;;;;;;-144.87;100.00;61487.56;5013730;28;20627;-79
2023/01/16 10:55:55;;;;;;;4.00;2.55;;;;;;;-144.87;100.00;61487.56;5003472;28;20136;-79
2023/01/16 10:58:28;;;;;;;4.43;2.90;;;;;;;-144.87;100.00;61487.56;5010814;28;20037;-79
2023/01/16 11:01:01;;;;;;;3.90;2.67;;;;;;;-144.87;100.00;61487.56;5025311;28;20045;-79
2023/01/16 11:03:34;;;;;;;7.68;2.90;;;;;;;-144.87;100.00;61487.56;5013623;28;20045;-78
2023/01/16 11:06:14;;;;;;;5.47;2.97;;;;;;;-144.87;100.00;61487.56;4992556;28;20049;-78
2023/01/16 11:08:42;;;;;;;5.50;2.83;;;;;;;-144.87;100.00;61487.56;4994741;28;20445;-78
2023/01/16 11:19:44;;;;;;;7.32;4.10;;;;;;;-144.87;100.00;61487.56;5004375;28;20496;-79
2023/01/16 11:22:39;;;;;;;7.90;5.10;;;;;;;-144.87;100.00;61487.56;5005172;28;20099;-78
2023/01/16 11:25:08;;;;;;;6.95;3.10;;;;;;;-144.87;100.00;61487.56;5012157;28;20068;-79
2023/01/16 11:27:37;;;;;;;7.50;3.25;;;;;;;-144.87;100.00;61487.56;5013563;28;20033;-78
2023/01/16 11:30:09;;;;;;;7.22;5.00;;;;;;;-144.87;100.00;61487.56;5030813;28;20045;-79
2023/01/16 11:32:38;;;;;;;4.90;3.45;;;;;;;-144.87;100.00;61487.56;4996883;28;20164;-78
2023/01/16 11:35:13;;;;;;;9.25;5.07;;;;;;;-144.87;100.00;61487.56;5012777;28;20033;-78
2023/01/16 11:37:39;;;;;;;6.95;4.70;;;;;;;-144.87;100.00;61487.56;5029109;28;20116;-79
2023/01/16 11:40:07;;;;;;;11.60;6.88;;;;;;;-144.87;100.00;61487.56;4996201;28;20041;-80
2023/01/16 11:48:24;;;;;;;17.25;12.05;;;;;;;-144.87;100.00;61487.56;5015158;28;20037;-79
2023/01/16 11:50:57;;;;;;;19.45;13.15;;;;;;;-144.87;100.00;61487.56;4999824;28;20054;-80
2023/01/16 11:53:30;;;;;;;15.50;9.85;;;;;;;-144.87;100.00;61487.56;4993037;28;20448;-81
2023/01/16 11:56:17;;;;;;;13.90;9.32;;;;;;;-144.87;100.00;61487.56;4993294;28;20116;-80
2023/01/16 11:59:26;;;;;;;14.63;8.35;;;;;;;-144.87;100.00;61487.56;5018110;28;20085;-80
2023/01/16 12:02:16;;;;;;;12.15;9.20;;;;;;;-144.87;100.00;61487.56;4987125;28;20121;-79
2023/01/16 12:08:07;;;;;;;15.00;9.50;;;;;;;-144.87;100.00;61487.56;5012012;28;20518;-79
2023/01/16 12:11:04;;;;;;;18.88;10.65;;;;;;;-144.87;100.00;61487.56;5001172;28;20137;-79
2023/01/16 12:16:45;;;;;;;11.50;8.68;;;;;;;-144.87;100.00;61487.56;5028704;28;20045;-79
2023/01/16 12:19:49;;;;;;;15.13;9.05;;;;;;;-144.87;100.00;61487.56;5010314;28;20443;-79
2023/01/16 12:22:20;;;;;;;11.50;7.88;;;;;;;-144.87;100.00;61487.56;5014899;28;20424;-80
2023/01/16 12:25:16;;;;;;;11.88;7.90;;;;;;;-144.87;100.00;61487.56;5019305;28;20449;-79
2023/01/16 12:28:19;;;;;;;10.88;6.32;;;;;;;-144.87;100.00;61487.56;5029511;28;20105;-79